Time;durP1;ratioP1;P1;durP2;ratioP2;P2;SDS_P1;SDS_P2;PMS_P1;PMS_P2;Temp;Humidity;BMP_temperature;BMP_pressure;BME280_temperature;BME280_humidity;BME280_pressure;Samples;Min_cycle;Max_cycle;Signal;HPM_P1;HPM_P2
2022/10/19 05:01:20;;;;;;;29.33;15.73;;;14.10;99.90;;;;;;6082507;23;20017;31
2022/10/19 05:03:46;;;;;;;31.10;16.17;;;14.10;99.90;;;;;;4980719;28;20054;-70
2022/10/19 05:06:13;;;;;;;27.88;15.10;;;14.00;99.90;;;;;;4982790;28;20069;-71
2022/10/19 05:08:39;;;;;;;30.90;16.25;;;14.00;99.90;;;;;;4981383;28;20090;-69
2022/10/19 05:11:08;;;;;;;24.58;15.77;;;14.00;99.90;;;;;;4981674;28;20216;-71
2022/10/19 05:13:34;;;;;;;20.67;12.85;;;14.10;99.90;;;;;;4983135;28;20354;-71
2022/10/19 05:16:02;;;;;;;25.10;14.23;;;14.00;99.90;;;;;;4982385;28;20185;-70
2022/10/19 05:18:28;;;;;;;21.00;13.93;;;14.00;99.90;;;;;;4981911;28;20026;-72
2022/10/19 05:21:09;;;;;;;20.88;13.15;;;14.10;99.90;;;;;;4982565;28;20173;-71
2022/10/19 05:23:35;;;;;;;21.95;12.68;;;14.10;99.90;;;;;;4982149;28;20213;-71
2022/10/19 05:26:06;;;;;;;23.10;14.38;;;14.20;99.90;;;;;;4982215;28;20096;-71
2022/10/19 05:28:33;;;;;;;23.58;14.23;;;14.30;99.90;;;;;;4982845;28;20245;-71
2022/10/19 05:31:12;;;;;;;20.05;13.88;;;14.30;99.90;;;;;;4981309;28;20081;-73
2022/10/19 05:33:38;;;;;;;19.50;12.55;;;14.30;99.90;;;;;;4983182;28;20334;-70
2022/10/19 05:36:17;;;;;;;20.52;13.63;;;14.30;99.90;;;;;;4982211;28;20054;-73
2022/10/19 05:38:45;;;;;;;22.88;14.02;;;14.40;99.90;;;;;;4982057;28;20042;-68
2022/10/19 05:41:11;;;;;;;26.30;15.85;;;14.40;99.90;;;;;;4982169;28;20037;-69
2022/10/19 05:43:37;;;;;;;29.05;17.13;;;14.40;99.90;;;;;;4982607;28;20106;-68
2022/10/19 05:46:05;;;;;;;28.73;17.38;;;14.50;99.90;;;;;;4982381;28;20132;-69
2022/10/19 05:48:32;;;;;;;27.42;17.35;;;14.40;99.90;;;;;;4982483;28;20027;-69
2022/10/19 05:51:00;;;;;;;27.77;16.55;;;14.40;99.90;;;;;;4982311;28;20059;-70
2022/10/19 05:53:26;;;;;;;32.15;19.67;;;14.40;99.90;;;;;;4982506;28;20062;-71
2022/10/19 05:55:52;;;;;;;24.23;15.40;;;14.50;99.90;;;;;;4982029;28;20309;-69
2022/10/19 05:58:18;;;;;;;25.48;16.20;;;14.40;99.90;;;;;;4982394;28;20042;-69
2022/10/19 06:00:54;;;;;;;24.75;16.48;;;14.40;99.90;;;;;;4982902;28;20082;-70
2022/10/19 06:03:21;;;;;;;28.10;16.42;;;14.40;99.90;;;;;;4982234;28;20039;-69
2022/10/19 06:05:48;;;;;;;26.27;16.38;;;14.40;99.90;;;;;;4982675;28;20161;-69
2022/10/19 06:08:14;;;;;;;24.88;15.77;;;14.40;99.90;;;;;;4982250;28;20208;-69
2022/10/19 06:10:41;;;;;;;24.55;14.93;;;14.50;99.90;;;;;;4981465;28;20034;-70
2022/10/19 06:13:07;;;;;;;26.90;16.15;;;14.50;99.90;;;;;;4982048;28;20030;-70
2022/10/19 06:15:35;;;;;;;25.95;14.30;;;14.60;99.90;;;;;;4982494;28;20106;-70
2022/10/19 06:18:03;;;;;;;21.05;14.50;;;14.60;99.90;;;;;;4981814;28;20042;-70
2022/10/19 06:20:29;;;;;;;;;;;14.60;99.90;;;;;;4982702;28;20161;-70
2022/10/19 06:22:55;;;;;;;24.05;14.15;;;14.70;99.90;;;;;;4981929;28;19913;-70
2022/10/19 06:25:20;;;;;;;21.95;13.80;;;14.70;99.90;;;;;;4983360;28;20086;-70
2022/10/19 06:27:49;;;;;;;22.52;14.13;;;14.80;99.90;;;;;;4985757;28;20031;-69
2022/10/19 06:30:15;;;;;;;;;;;14.80;99.90;;;;;;4986135;28;20093;-71
2022/10/19 06:32:40;;;;;;;19.67;13.57;;;14.80;99.90;;;;;;4985916;28;20175;-71
2022/10/19 06:35:09;;;;;;;22.83;14.80;;;14.90;99.90;;;;;;4984765;28;20030;-69
2022/10/19 06:37:34;;;;;;;;;;;14.90;99.90;;;;;;4985416;28;20058;-70
2022/10/19 06:40:01;;;;;;;21.30;13.68;;;15.00;99.90;;;;;;4983534;28;19914;-70
2022/10/19 06:42:30;;;;;;;19.98;13.20;;;15.00;99.90;;;;;;4984483;28;20093;-73
2022/10/19 06:44:55;;;;;;;;;;;15.10;99.90;;;;;;4985026;28;20052;-72
2022/10/19 06:47:21;;;;;;;20.83;13.73;;;15.20;99.90;;;;;;4985061;28;19906;-73
2022/10/19 06:49:47;;;;;;;22.48;14.18;;;15.20;99.90;;;;;;4985454;28;20035;-71
2022/10/19 06:52:12;;;;;;;21.38;15.18;;;15.30;99.90;;;;;;4984728;28;20034;-72
2022/10/19 06:54:38;;;;;;;19.13;14.18;;;15.30;99.90;;;;;;4984886;28;20331;-75
2022/10/19 06:57:04;;;;;;;22.85;14.52;;;15.30;99.90;;;;;;4983530;28;20031;-72
2022/10/19 06:59:29;;;;;;;21.88;14.63;;;15.30;99.90;;;;;;4985069;28;20031;-72
2022/10/19 07:01:55;;;;;;;22.52;14.63;;;15.40;99.90;;;;;;4982250;28;20062;-71
2022/10/19 07:04:21;;;;;;;24.73;14.85;;;15.50;99.90;;;;;;4984248;28;20050;-71
2022/10/19 07:06:46;;;;;;;24.60;15.93;;;15.50;99.90;;;;;;4983620;28;20033;-71
2022/10/19 07:09:12;;;;;;;23.80;15.07;;;15.60;99.90;;;;;;4981821;28;20090;-70
2022/10/19 07:11:38;;;;;;;24.10;15.13;;;15.50;99.90;;;;;;4965323;29;20094;-70
2022/10/19 07:14:04;;;;;;;19.55;14.48;;;15.50;99.90;;;;;;4964751;28;20029;-71
2022/10/19 07:16:29;;;;;;;22.27;14.85;;;15.40;99.90;;;;;;4964738;28;20194;-70
2022/10/19 07:18:55;;;;;;;18.60;12.63;;;15.40;99.90;;;;;;4962032;28;20063;-72
2022/10/19 07:21:22;;;;;;;21.52;13.07;;;15.40;99.90;;;;;;4962099;29;20024;-71
2022/10/19 07:23:48;;;;;;;17.80;12.85;;;15.50;99.90;;;;;;4963495;28;20086;-70
2022/10/19 07:26:20;;;;;;;20.17;12.38;;;15.60;99.90;;;;;;4972040;28;20026;-70
2022/10/19 07:28:47;;;;;;;21.35;12.38;;;15.60;99.90;;;;;;4982672;28;20153;-72
2022/10/19 07:31:19;;;;;;;18.33;11.85;;;15.70;99.90;;;;;;4980324;28;20105;-70
2022/10/19 07:33:46;;;;;;;20.63;11.98;;;15.80;99.90;;;;;;4974327;28;20049;-71
2022/10/19 07:36:12;;;;;;;24.48;12.48;;;16.00;99.90;;;;;;4973863;28;20098;-71
2022/10/19 07:38:39;;;;;;;18.80;10.98;;;16.10;99.90;;;;;;4963388;28;20037;-73
2022/10/19 07:41:08;;;;;;;17.55;10.57;;;16.20;99.90;;;;;;4962918;28;20034;-72
2022/10/19 07:43:34;;;;;;;19.45;9.57;;;16.40;99.90;;;;;;4963221;28;20031;-71
2022/10/19 07:46:02;;;;;;;18.35;10.10;;;16.60;99.90;;;;;;4963345;29;20031;-72
2022/10/19 07:48:28;;;;;;;13.98;8.55;;;16.60;99.90;;;;;;4966557;28;20038;-71
2022/10/19 07:50:54;;;;;;;15.07;8.30;;;16.70;99.90;;;;;;4980813;28;20133;-72
2022/10/19 07:53:20;;;;;;;13.13;8.45;;;16.80;99.90;;;;;;4971242;28;20033;-72
2022/10/19 07:55:46;;;;;;;13.45;8.68;;;16.80;99.90;;;;;;4971131;28;20035;-70
2022/10/19 07:58:12;;;;;;;22.20;9.13;;;16.90;99.90;;;;;;4982407;28;20098;-71
2022/10/19 08:00:38;;;;;;;14.13;9.05;;;17.00;99.90;;;;;;4982803;28;20031;-72
2022/10/19 08:03:04;;;;;;;18.02;9.43;;;17.00;99.90;;;;;;4980678;28;20043;-72
2022/10/19 08:05:32;;;;;;;14.30;8.57;;;17.00;99.90;;;;;;4981413;28;20031;-72
2022/10/19 08:07:58;;;;;;;16.77;9.55;;;17.00;99.90;;;;;;4982311;28;20033;-72
2022/10/19 08:10:23;;;;;;;12.43;9.35;;;16.90;99.90;;;;;;4982603;28;20054;-72
2022/10/19 08:12:49;;;;;;;14.95;8.88;;;16.90;99.90;;;;;;4982951;28;20038;-71
2022/10/19 08:15:15;;;;;;;13.15;8.98;;;16.90;99.90;;;;;;4982064;28;20275;-71
2022/10/19 08:17:40;;;;;;;15.13;9.18;;;16.90;99.90;;;;;;4997380;28;20094;-72
2022/10/19 08:20:07;;;;;;;14.07;9.50;;;17.00;99.90;;;;;;4981866;28;20035;-74
2022/10/19 08:22:33;;;;;;;13.57;8.98;;;17.00;99.90;;;;;;4982392;28;20030;-73
2022/10/19 08:24:58;;;;;;;12.05;8.57;;;17.00;99.90;;;;;;4981695;28;20030;-71
2022/10/19 08:27:24;;;;;;;16.85;8.95;;;17.10;99.90;;;;;;4982420;28;20026;-72
2022/10/19 08:29:50;;;;;;;15.45;8.68;;;17.10;99.90;;;;;;4982392;28;20043;-73
2022/10/19 08:32:17;;;;;;;13.10;8.57;;;17.10;99.90;;;;;;4981704;28;20352;-74
2022/10/19 08:34:43;;;;;;;15.35;9.13;;;17.10;99.90;;;;;;4982130;28;20034;-74
2022/10/19 08:37:09;;;;;;;15.55;9.10;;;17.10;99.90;;;;;;4981667;28;20058;-73
2022/10/19 08:39:35;;;;;;;14.73;8.55;;;16.90;99.90;;;;;;4979158;28;20140;-73
2022/10/19 08:42:07;;;;;;;14.45;8.73;;;16.90;99.90;;;;;;4962766;29;20245;-73
2022/10/19 08:45:10;;;;;;;18.55;9.02;;;17.10;99.90;;;;;;4971890;28;20019;-72
2022/10/19 08:47:58;;;;;;;14.18;8.63;;;17.00;99.90;;;;;;4982853;28;20027;-73
2022/10/19 08:50:28;;;;;;;12.90;8.52;;;17.00;99.90;;;;;;4984756;28;20090;-71
2022/10/19 08:53:01;;;;;;;13.98;8.85;;;17.10;99.90;;;;;;4982961;28;20129;-71
2022/10/19 08:55:52;;;;;;;11.82;8.25;;;17.10;99.90;;;;;;4979745;28;20049;-71
2022/10/19 08:58:27;;;;;;;11.60;7.82;;;17.20;99.90;;;;;;4964376;28;20526;-72
2022/10/19 09:01:02;;;;;;;10.35;7.93;;;17.20;99.90;;;;;;4964993;29;20031;-74
2022/10/19 09:03:41;;;;;;;12.45;8.07;;;17.20;99.90;;;;;;4964789;29;20084;-71
2022/10/19 09:06:25;;;;;;;11.00;7.53;;;17.20;99.90;;;;;;4977610;28;20112;-71
2022/10/19 09:08:53;;;;;;;13.13;7.72;;;17.10;99.90;;;;;;5001909;28;20212;-71
2022/10/19 09:11:24;;;;;;;9.27;6.55;;;17.10;99.90;;;;;;4983602;28;20297;-74
2022/10/19 09:13:59;;;;;;;8.27;6.05;;;17.20;99.90;;;;;;4983615;28;20081;-71
2022/10/19 09:16:26;;;;;;;9.18;6.18;;;17.10;99.90;;;;;;4983137;28;20049;-72
2022/10/19 09:18:52;;;;;;;9.85;6.38;;;17.20;99.90;;;;;;4982036;28;20045;-74
2022/10/19 09:21:42;;;;;;;10.73;6.93;;;17.10;99.90;;;;;;4982570;28;20031;-72
2022/10/19 09:24:28;;;;;;;7.78;5.90;;;17.10;99.90;;;;;;4982389;28;20053;-71
2022/10/19 09:26:59;;;;;;;8.55;5.55;;;17.10;99.90;;;;;;4965428;28;20336;-70
2022/10/19 09:29:46;;;;;;;9.07;5.30;;;17.20;99.90;;;;;;4962085;29;20181;-72
2022/10/19 09:32:18;;;;;;;8.18;4.55;;;17.30;99.90;;;;;;4967155;28;20030;-71
2022/10/19 09:34:50;;;;;;;7.82;4.47;;;17.40;99.90;;;;;;4983497;28;20054;-71
2022/10/19 09:37:16;;;;;;;6.30;3.65;;;17.30;99.90;;;;;;4982456;28;20034;-70
2022/10/19 09:39:41;;;;;;;6.70;3.45;;;17.30;99.90;;;;;;4982791;28;20208;-70
2022/10/19 09:42:19;;;;;;;4.47;3.35;;;17.30;99.90;;;;;;4982391;28;20023;-70
2022/10/19 09:44:45;;;;;;;9.07;4.03;;;17.40;99.90;;;;;;4983133;28;20085;-70
2022/10/19 09:47:39;;;;;;;4.50;3.20;;;17.70;99.90;;;;;;4982508;28;20125;-72
2022/10/19 09:50:26;;;;;;;7.88;4.05;;;17.80;99.90;;;;;;4981887;28;20029;-70
2022/10/19 09:53:19;;;;;;;5.15;3.40;;;17.80;99.90;;;;;;4981452;28;20026;-72
2022/10/19 09:56:03;;;;;;;5.85;3.40;;;17.80;99.90;;;;;;4978818;28;20228;-70
2022/10/19 09:58:29;;;;;;;5.30;3.67;;;17.70;99.90;;;;;;4962322;28;20259;-70
2022/10/19 10:00:56;;;;;;;5.35;3.45;;;17.60;99.90;;;;;;4967041;28;20051;-72
2022/10/19 10:03:45;;;;;;;9.48;4.07;;;17.50;99.90;;;;;;5000135;28;20057;-71
2022/10/19 10:06:15;;;;;;;8.00;3.80;;;17.60;99.90;;;;;;4948706;29;20054;-72
2022/10/19 10:08:57;;;;;;;5.68;3.47;;;17.60;99.90;;;;;;4965106;29;20035;-72
2022/10/19 10:11:29;;;;;;;6.28;3.78;;;17.50;99.90;;;;;;4929208;29;20075;-70
2022/10/19 10:13:59;;;;;;;5.50;3.20;;;17.60;99.90;;;;;;4945838;29;20042;-70
2022/10/19 10:16:29;;;;;;;4.63;3.00;;;17.50;99.90;;;;;;4929661;29;20162;-71
2022/10/19 10:19:04;;;;;;;4.32;3.10;;;17.40;99.90;;;;;;4946270;29;20027;-71
2022/10/19 10:21:44;;;;;;;4.50;2.72;;;17.40;99.90;;;;;;4945292;29;20091;-72
2022/10/19 10:24:10;;;;;;;4.45;2.70;;;17.40;99.90;;;;;;4945011;29;20067;-69
2022/10/19 10:26:57;;;;;;;4.93;3.17;;;17.40;99.90;;;;;;4945294;29;20039;-71
2022/10/19 10:29:33;;;;;;;4.28;3.15;;;17.40;99.90;;;;;;4945179;29;20047;-70
2022/10/19 10:32:18;;;;;;;5.20;2.75;;;17.50;99.90;;;;;;4932830;29;20129;-72
2022/10/19 10:35:05;;;;;;;6.32;2.88;;;17.50;99.90;;;;;;4964696;29;20344;-69
2022/10/19 10:37:45;;;;;;;5.00;2.50;;;17.50;99.90;;;;;;4964589;29;20309;-71
2022/10/19 10:40:29;;;;;;;4.53;2.50;;;17.60;99.90;;;;;;4945361;29;20043;-72
2022/10/19 10:43:01;;;;;;;7.00;2.80;;;17.60;99.90;;;;;;4954297;29;20162;-73
2022/10/19 10:45:33;;;;;;;4.25;2.70;;;17.80;99.90;;;;;;4978079;28;20035;-72
2022/10/19 10:48:25;;;;;;;4.07;2.28;;;17.90;99.90;;;;;;4966289;28;20036;-73
2022/10/19 10:50:58;;;;;;;4.70;2.90;;;17.90;99.90;;;;;;4963756;28;20098;-70
2022/10/19 10:53:45;;;;;;;4.20;2.65;;;18.10;99.90;;;;;;4966769;28;20080;-73
2022/10/19 10:56:23;;;;;;;4.03;2.30;;;18.50;99.90;;;;;;4966208;29;20034;-72
2022/10/19 10:59:18;;;;;;;4.47;2.38;;;18.80;99.90;;;;;;4966733;28;20059;-73
2022/10/19 11:02:13;;;;;;;3.88;2.47;;;19.00;99.90;;;;;;4964604;29;20103;-71
2022/10/19 11:04:45;;;;;;;6.53;2.60;;;19.20;99.90;;;;;;4966373;29;20039;-73
2022/10/19 11:07:23;;;;;;;5.47;2.90;;;19.10;99.90;;;;;;4963316;29;20289;-74
2022/10/19 11:09:55;;;;;;;9.00;3.47;;;19.20;99.90;;;;;;4970134;28;20055;-73
2022/10/19 11:12:48;;;;;;;7.70;3.15;;;19.40;99.90;;;;;;4982491;28;20094;-76
2022/10/19 11:15:32;;;;;;;12.13;6.57;;;19.40;99.90;;;;;;4966939;28;20217;-73
2022/10/19 11:18:12;;;;;;;4.63;2.80;;;19.70;99.90;;;;;;4983233;28;20035;-70
2022/10/19 11:20:47;;;;;;;8.70;5.18;;;19.80;99.90;;;;;;4983053;28;20129;-71
2022/10/19 11:23:40;;;;;;;11.35;3.20;;;20.00;99.90;;;;;;4981995;28;20117;-72
2022/10/19 11:26:47;;;;;;;5.18;2.42;;;20.00;99.90;;;;;;4974014;28;20447;-70
2022/10/19 11:29:22;;;;;;;4.95;3.28;;;19.70;99.90;;;;;;4981741;28;20030;-71
2022/10/19 11:31:54;;;;;;;5.15;2.80;;;19.50;99.90;;;;;;4983603;28;20027;-72
2022/10/19 11:34:44;;;;;;;7.88;3.03;;;19.50;99.90;;;;;;4983557;28;20038;-72
2022/10/19 11:37:33;;;;;;;4.53;2.80;;;19.50;99.90;;;;;;4982710;28;20031;-71
2022/10/19 11:40:17;;;;;;;6.88;4.00;;;19.40;99.90;;;;;;4977430;28;20031;-72
2022/10/19 11:43:05;;;;;;;7.07;2.30;;;19.60;99.90;;;;;;4965670;29;20098;-72
2022/10/19 11:46:10;;;;;;;6.00;2.53;;;19.80;99.90;;;;;;4982610;28;20027;-72
2022/10/19 11:49:07;;;;;;;3.72;2.00;;;20.20;99.90;;;;;;4964782;28;20249;-72
2022/10/19 11:51:45;;;;;;;5.35;2.28;;;20.50;99.90;;;;;;4965488;29;20304;-70
2022/10/19 11:54:45;;;;;;;3.92;2.65;;;20.60;99.90;;;;;;4964944;29;20227;-71
2022/10/19 11:57:31;;;;;;;4.80;2.03;;;20.50;99.90;;;;;;4963657;29;20102;-72
2022/10/19 12:00:17;;;;;;;3.83;2.20;;;20.60;99.90;;;;;;4963777;29;20413;-71
2022/10/19 12:02:52;;;;;;;4.82;3.17;;;20.50;99.90;;;;;;4964848;29;20047;-73
2022/10/19 12:05:59;;;;;;;4.65;2.08;;;20.70;99.90;;;;;;4980191;28;20090;-69
2022/10/19 12:08:44;;;;;;;8.77;3.90;;;20.90;99.90;;;;;;4975688;28;20057;-69
2022/10/19 12:11:30;;;;;;;6.72;2.92;;;21.00;99.90;;;;;;4983258;28;20030;-72
2022/10/19 12:14:03;;;;;;;6.10;3.13;;;20.90;99.90;;;;;;4984163;28;20098;-71
2022/10/19 12:17:04;;;;;;;3.35;2.40;;;20.80;99.90;;;;;;4982807;28;20026;-71
2022/10/19 12:19:38;;;;;;;3.63;2.65;;;20.70;99.90;;;;;;4980150;28;20054;-72
2022/10/19 12:22:06;;;;;;;5.45;3.78;;;20.40;99.90;;;;;;4982393;28;20049;-71
2022/10/19 12:24:33;;;;;;;7.28;2.78;;;20.30;99.90;;;;;;4983399;28;20026;-70
2022/10/19 12:27:00;;;;;;;3.85;2.58;;;20.10;99.90;;;;;;4983734;28;20065;-72
2022/10/19 12:29:34;;;;;;;5.00;2.90;;;19.90;99.90;;;;;;4982373;28;20038;-71
2022/10/19 12:32:10;;;;;;;5.13;2.53;;;20.00;99.90;;;;;;4979995;28;20204;-70
2022/10/19 12:34:51;;;;;;;3.35;2.45;;;20.40;99.90;;;;;;4964442;28;20312;-70
2022/10/19 12:37:41;;;;;;;5.47;2.95;;;21.30;99.90;;;;;;4963281;28;20061;-70
2022/10/19 12:40:27;;;;;;;7.15;2.78;;;23.10;99.20;;;;;;4963464;28;20297;-73
2022/10/19 12:43:09;;;;;;;4.03;2.60;;;25.20;95.40;;;;;;4964331;29;20027;-72
2022/10/19 12:45:50;;;;;;;5.25;3.05;;;25.60;93.40;;;;;;4963638;28;20059;-70
2022/10/19 12:48:18;;;;;;;4.00;2.05;;;26.10;92.10;;;;;;4963743;29;20030;-71
2022/10/19 12:50:47;;;;;;;7.43;2.78;;;27.10;90.70;;;;;;4963941;29;20035;-70
2022/10/19 12:53:36;;;;;;;6.95;2.60;;;27.40;89.20;;;;;;4977063;28;20291;-70
2022/10/19 12:56:08;;;;;;;4.35;2.08;;;27.60;86.80;;;;;;4987922;28;20460;-70
2022/10/19 12:58:43;;;;;;;3.88;2.22;;;28.50;85.90;;;;;;5002738;28;20041;-70
2022/10/19 13:01:43;;;;;;;3.30;1.85;;;28.60;82.30;;;;;;5001894;28;20094;-72
2022/10/19 13:04:15;;;;;;;5.90;2.20;;;28.70;80.90;;;;;;4999124;28;20066;-70
2022/10/19 13:06:44;;;;;;;3.42;2.00;;;28.70;80.70;;;;;;5002583;28;20066;-71
2022/10/19 13:09:31;;;;;;;4.88;2.28;;;29.40;79.40;;;;;;5001435;28;20291;-71
2022/10/19 13:12:14;;;;;;;4.53;2.40;;;29.50;77.90;;;;;;5002266;28;20039;-72
2022/10/19 13:14:55;;;;;;;2.92;2.13;;;28.80;77.90;;;;;;5002633;28;20093;-71
2022/10/19 13:17:32;;;;;;;3.88;2.30;;;29.10;77.20;;;;;;5002092;28;20110;-72
2022/10/19 13:20:16;;;;;;;4.45;2.55;;;29.10;77.40;;;;;;5001959;28;20038;-72
2022/10/19 13:23:04;;;;;;;2.90;2.05;;;28.30;78.00;;;;;;5001709;28;20058;-70
2022/10/19 13:25:40;;;;;;;3.63;2.30;;;28.20;78.00;;;;;;5001868;28;20049;-72
2022/10/19 13:28:06;;;;;;;4.22;2.03;;;27.80;78.60;;;;;;5001571;28;20069;-72
2022/10/19 13:30:41;;;;;;;5.25;2.00;;;27.80;78.40;;;;;;5002106;28;20027;-73
2022/10/19 13:33:27;;;;;;;3.00;1.70;;;27.70;78.50;;;;;;5001547;28;20121;-71
2022/10/19 13:35:59;;;;;;;3.15;2.03;;;27.50;78.60;;;;;;5006450;28;20261;-72
2022/10/19 13:38:39;;;;;;;3.30;1.90;;;26.60;79.90;;;;;;5003802;28;20106;-71
2022/10/19 13:41:14;;;;;;;3.97;1.90;;;25.40;82.90;;;;;;5006316;28;20069;-71
2022/10/19 13:43:59;;;;;;;4.65;2.05;;;24.60;85.10;;;;;;5005722;28;20465;-70
2022/10/19 13:46:47;;;;;;;4.07;1.73;;;24.40;86.30;;;;;;5021019;28;20050;-71
2022/10/19 13:49:34;;;;;;;3.47;2.13;;;25.00;84.90;;;;;;5004902;28;20319;-71
2022/10/19 13:52:10;;;;;;;5.40;2.03;;;25.50;85.00;;;;;;5004793;28;20041;-73
2022/10/19 13:54:39;;;;;;;2.78;1.95;;;26.20;83.30;;;;;;5006549;28;20042;-70
2022/10/19 13:57:11;;;;;;;4.15;1.73;;;26.70;82.10;;;;;;5005903;28;20097;-70
2022/10/19 13:59:55;;;;;;;3.58;1.90;;;27.80;79.60;;;;;;5005712;28;20041;-71
2022/10/19 14:02:44;;;;;;;3.35;1.65;;;27.90;77.60;;;;;;5004428;28;20235;-71
2022/10/19 14:05:31;;;;;;;3.83;1.77;;;28.00;77.10;;;;;;5005902;28;20035;-72
2022/10/19 14:08:18;;;;;;;4.30;1.58;;;27.90;78.00;;;;;;5005386;28;20097;-70
2022/10/19 14:10:56;;;;;;;4.50;1.35;;;27.50;77.90;;;;;;5005540;28;20034;-70
2022/10/19 14:13:22;;;;;;;2.55;1.48;;;27.20;78.00;;;;;;5004613;28;20030;-69
2022/10/19 14:15:54;;;;;;;2.28;1.40;;;27.00;78.60;;;;;;5005945;28;20094;-70
2022/10/19 14:18:28;;;;;;;3.58;1.70;;;26.80;79.40;;;;;;5005704;28;20065;-69
2022/10/19 14:20:57;;;;;;;5.32;1.80;;;26.60;79.00;;;;;;5006850;28;20231;-70
2022/10/19 14:23:43;;;;;;;2.60;1.50;;;27.10;78.80;;;;;;5006307;28;20085;-70
2022/10/19 14:26:22;;;;;;;4.10;1.55;;;27.10;78.50;;;;;;5006247;28;20058;-69
2022/10/19 14:28:56;;;;;;;4.10;1.55;;;27.20;78.90;;;;;;5006310;28;20042;-70
2022/10/19 14:31:26;;;;;;;2.92;1.75;;;25.90;79.60;;;;;;5005493;28;20077;-70
2022/10/19 14:34:01;;;;;;;4.13;2.47;;;24.80;82.70;;;;;;5005479;28;20046;-72
2022/10/19 14:36:36;;;;;;;2.97;2.30;;;23.60;86.10;;;;;;5005908;28;20022;-71
2022/10/19 14:39:06;;;;;;;6.55;1.90;;;22.80;88.80;;;;;;5005416;28;20041;-71
2022/10/19 14:41:36;;;;;;;3.63;1.90;;;22.30;90.40;;;;;;4985934;28;20042;-70
2022/10/19 14:44:35;;;;;;;3.20;2.25;;;21.70;91.10;;;;;;4987274;28;20331;-70
2022/10/19 14:47:01;;;;;;;3.97;2.40;;;21.50;92.00;;;;;;5001844;28;20339;-70
2022/10/19 14:49:27;;;;;;;3.92;1.90;;;21.20;92.50;;;;;;5003137;28;20243;-71
2022/10/19 14:52:00;;;;;;;4.47;2.15;;;21.10;92.60;;;;;;5003178;28;20034;-71
2022/10/19 14:54:37;;;;;;;4.60;3.60;;;21.00;92.90;;;;;;5004413;28;20089;-70
2022/10/19 14:57:06;;;;;;;6.32;3.67;;;21.00;93.20;;;;;;5003313;28;20038;-70
2022/10/19 14:59:35;;;;;;;3.10;2.30;;;21.10;93.10;;;;;;5004240;28;20045;-70
2022/10/19 15:02:03;;;;;;;;;;;21.30;93.10;;;;;;5003879;28;20077;-70
2022/10/19 15:04:32;;;;;;;3.70;2.40;;;21.70;92.70;;;;;;5004588;28;19906;-70
2022/10/19 15:07:01;;;;;;;3.30;1.85;;;21.90;92.30;;;;;;5004365;28;20026;-70
2022/10/19 15:09:36;;;;;;;3.78;2.10;;;22.20;91.80;;;;;;5004359;28;20077;-70
2022/10/19 15:12:11;;;;;;;6.72;2.50;;;21.70;92.30;;;;;;5003825;28;20316;-71
2022/10/19 15:14:37;;;;;;;4.38;2.17;;;21.70;92.50;;;;;;5004448;28;20034;-70
2022/10/19 15:17:19;;;;;;;2.95;1.98;;;21.90;92.30;;;;;;5003483;28;20038;-72
2022/10/19 15:19:46;;;;;;;3.67;1.90;;;22.00;92.20;;;;;;5003290;28;20138;-71
2022/10/19 15:22:30;;;;;;;3.42;2.22;;;22.00;92.20;;;;;;5003714;28;20265;-71
2022/10/19 15:25:07;;;;;;;3.70;2.25;;;22.00;92.60;;;;;;5004288;28;20049;-71
2022/10/19 15:27:34;;;;;;;4.50;2.30;;;22.50;91.70;;;;;;5004434;28;20097;-68
2022/10/19 15:30:21;;;;;;;2.50;1.95;;;22.20;91.80;;;;;;5004279;28;20030;-71
2022/10/19 15:32:50;;;;;;;4.47;2.92;;;22.40;91.80;;;;;;5004033;28;20110;-71
2022/10/19 15:35:27;;;;;;;;;;;22.20;91.60;;;;;;5003981;28;20208;-69
2022/10/19 15:38:26;;;;;;;5.45;2.63;;;21.80;92.20;;;;;;5003797;28;19913;-71
2022/10/19 15:41:03;;;;;;;4.35;2.58;;;21.50;92.50;;;;;;4981727;28;20124;-70
2022/10/19 15:43:36;;;;;;;3.72;2.53;;;21.10;93.20;;;;;;5003539;28;20342;-71
2022/10/19 15:46:11;;;;;;;5.10;2.58;;;21.00;93.60;;;;;;4983971;28;20305;-71
2022/10/19 15:48:40;;;;;;;7.40;3.05;;;20.70;94.40;;;;;;4982871;28;20220;-69
2022/10/19 15:51:25;;;;;;;5.75;3.67;;;20.30;94.60;;;;;;4983979;28;20058;-70
2022/10/19 15:53:55;;;;;;;3.83;2.63;;;19.90;95.60;;;;;;4984193;28;20034;-72
2022/10/19 15:56:23;;;;;;;3.60;2.80;;;19.50;96.00;;;;;;4987551;28;20026;-70
2022/10/19 15:58:49;;;;;;;5.43;3.13;;;19.20;96.50;;;;;;5001974;28;20316;-73
2022/10/19 16:01:17;;;;;;;5.38;3.33;;;18.90;97.30;;;;;;5002916;28;20065;-70
2022/10/19 16:03:44;;;;;;;5.57;3.00;;;18.70;98.00;;;;;;5003366;28;20070;-71
2022/10/19 16:06:10;;;;;;;6.20;3.03;;;18.50;98.30;;;;;;5002108;28;20034;-71
2022/10/19 16:08:35;;;;;;;5.80;3.33;;;18.40;98.80;;;;;;5002340;28;20120;-70
2022/10/19 16:11:03;;;;;;;5.60;3.67;;;18.20;99.10;;;;;;5003746;28;20331;-70
2022/10/19 16:13:29;;;;;;;7.15;3.83;;;18.10;99.60;;;;;;5003127;28;20316;-73
2022/10/19 16:16:02;;;;;;;6.05;3.60;;;17.90;99.90;;;;;;5003465;28;20223;-70
2022/10/19 16:18:28;;;;;;;5.78;4.15;;;17.80;99.90;;;;;;5002937;28;20113;-72
2022/10/19 16:20:54;;;;;;;5.20;3.90;;;17.70;99.90;;;;;;5003434;28;20030;-71
2022/10/19 16:23:20;;;;;;;5.88;4.05;;;17.60;99.90;;;;;;5003144;28;20185;-71
2022/10/19 16:25:45;;;;;;;7.32;4.13;;;17.50;99.90;;;;;;5003467;28;20022;-71
2022/10/19 16:28:11;;;;;;;6.63;4.20;;;17.40;99.90;;;;;;5002822;28;20030;-71
2022/10/19 16:30:37;;;;;;;6.72;4.45;;;17.30;99.90;;;;;;5003115;28;20060;-71
2022/10/19 16:33:03;;;;;;;7.40;4.57;;;17.20;99.90;;;;;;5001820;28;20064;-70
2022/10/19 16:35:29;;;;;;;6.90;4.53;;;17.10;99.90;;;;;;5002432;28;20030;-71
2022/10/19 16:37:54;;;;;;;6.80;4.55;;;17.10;99.90;;;;;;5018529;28;20040;-71
2022/10/19 16:40:20;;;;;;;6.13;4.57;;;17.00;99.90;;;;;;4999469;28;20093;-76
2022/10/19 16:42:46;;;;;;;7.07;5.03;;;16.90;99.90;;;;;;4992382;28;20027;-72
2022/10/19 16:45:12;;;;;;;10.60;7.38;;;16.80;99.90;;;;;;4990236;28;20203;-73
2022/10/19 16:47:37;;;;;;;8.25;6.60;;;16.70;99.90;;;;;;5003212;28;20042;-72
2022/10/19 16:50:04;;;;;;;8.68;6.53;;;16.70;99.90;;;;;;4990991;28;20292;-73
2022/10/19 16:52:31;;;;;;;9.23;6.75;;;16.60;99.90;;;;;;4982140;28;20208;-70
2022/10/19 16:55:00;;;;;;;10.65;5.30;;;16.50;99.90;;;;;;4983542;28;20331;-71
2022/10/19 16:57:26;;;;;;;7.82;5.93;;;16.40;99.90;;;;;;4993154;28;20383;-70
2022/10/19 16:59:53;;;;;;;8.52;5.68;;;16.30;99.90;;;;;;4983069;28;20033;-71
2022/10/19 17:02:20;;;;;;;9.57;7.38;;;16.30;99.90;;;;;;4989817;28;20046;-72
2022/10/19 17:04:46;;;;;;;11.57;8.43;;;16.20;99.90;;;;;;4985501;28;20038;-70
2022/10/19 17:07:17;;;;;;;10.13;7.47;;;16.10;99.90;;;;;;5002077;28;20042;-73
2022/10/19 17:09:43;;;;;;;11.10;7.53;;;16.10;99.90;;;;;;4996083;28;20214;-71
2022/10/19 17:12:10;;;;;;;10.32;6.30;;;16.00;99.90;;;;;;4982368;28;20022;-71
2022/10/19 17:14:38;;;;;;;9.38;6.13;;;16.00;99.90;;;;;;4983195;28;20038;-71
2022/10/19 17:17:03;;;;;;;7.82;5.85;;;15.90;99.90;;;;;;4983400;28;20147;-70
2022/10/19 17:19:29;;;;;;;9.70;6.40;;;15.80;99.90;;;;;;4997690;28;20050;-71
2022/10/19 17:21:56;;;;;;;11.07;7.90;;;15.80;99.90;;;;;;4995368;28;20105;-70
2022/10/19 17:24:22;;;;;;;9.70;7.60;;;15.70;99.90;;;;;;4989371;28;20023;-72
2022/10/19 17:26:51;;;;;;;12.07;7.90;;;15.70;99.90;;;;;;4992055;28;20112;-69
2022/10/19 17:29:18;;;;;;;9.43;6.95;;;15.60;99.90;;;;;;4993939;28;20138;-71
2022/10/19 17:31:44;;;;;;;8.45;6.53;;;15.60;99.90;;;;;;4986792;28;20320;-71
2022/10/19 17:34:10;;;;;;;11.88;8.35;;;15.60;99.90;;;;;;4997586;28;20030;-71
2022/10/19 17:36:40;;;;;;;11.13;7.90;;;15.60;99.90;;;;;;5001179;28;20049;-70
2022/10/19 17:39:12;;;;;;;12.07;8.20;;;15.60;99.90;;;;;;4989827;28;20110;-70
2022/10/19 17:41:38;;;;;;;9.63;7.75;;;15.50;99.90;;;;;;4981447;28;20050;-72
2022/10/19 17:44:04;;;;;;;12.98;9.52;;;15.50;99.90;;;;;;4981533;28;20023;-69
2022/10/19 17:46:32;;;;;;;15.57;9.80;;;15.40;99.90;;;;;;4994224;28;20026;-71
2022/10/19 17:48:58;;;;;;;14.33;11.53;;;15.40;99.90;;;;;;5000121;28;20193;-69
2022/10/19 17:51:27;;;;;;;11.90;8.43;;;15.30;99.90;;;;;;5000450;28;20421;-70
2022/10/19 17:53:55;;;;;;;12.20;9.30;;;15.30;99.90;;;;;;5001135;28;20026;-71
2022/10/19 17:56:21;;;;;;;18.13;11.88;;;15.30;99.90;;;;;;4992007;28;20054;-70
2022/10/19 17:58:48;;;;;;;20.85;13.20;;;15.30;99.90;;;;;;5001230;28;20114;-70
2022/10/19 18:01:18;;;;;;;16.70;12.20;;;15.30;99.90;;;;;;5000519;28;20034;-71
2022/10/19 18:03:44;;;;;;;11.05;8.93;;;15.30;99.90;;;;;;4986730;28;20045;-73
2022/10/19 18:06:19;;;;;;;10.45;8.20;;;15.20;99.90;;;;;;4980900;28;20027;-70
2022/10/19 18:08:48;;;;;;;14.43;7.85;;;15.20;99.90;;;;;;4981989;28;20031;-72
2022/10/19 18:11:23;;;;;;;11.32;8.23;;;15.20;99.90;;;;;;4979945;28;20039;-73
2022/10/19 18:13:50;;;;;;;11.25;8.15;;;15.30;99.90;;;;;;4980353;28;20034;-71